sensor_id;sensor_type;location;lat;lon;timestamp;P1;durP1;ratioP1;P2;durP2;ratioP2
68234;SDS011;55052;52.056;5.296;2022-08-19T00:01:22;7.00;;;3.17;;
68234;SDS011;55052;52.056;5.296;2022-08-19T00:03:58;5.90;;;3.53;;
68234;SDS011;55052;52.056;5.296;2022-08-19T00:06:27;4.80;;;3.50;;
68234;SDS011;55052;52.056;5.296;2022-08-19T00:08:55;6.22;;;3.35;;
68234;SDS011;55052;52.056;5.296;2022-08-19T00:11:24;7.43;;;3.58;;
68234;SDS011;55052;52.056;5.296;2022-08-19T00:13:52;5.65;;;3.13;;
68234;SDS011;55052;52.056;5.296;2022-08-19T00:16:21;4.95;;;3.20;;
68234;SDS011;55052;52.056;5.296;2022-08-19T00:18:52;5.57;;;3.35;;
68234;SDS011;55052;52.056;5.296;2022-08-19T00:21:22;6.28;;;3.25;;
68234;SDS011;55052;52.056;5.296;2022-08-19T00:23:50;7.15;;;3.17;;
68234;SDS011;55052;52.056;5.296;2022-08-19T00:26:17;5.78;;;3.33;;
68234;SDS011;55052;52.056;5.296;2022-08-19T00:28:44;6.30;;;3.25;;
68234;SDS011;55052;52.056;5.296;2022-08-19T00:31:11;5.47;;;3.28;;
68234;SDS011;55052;52.056;5.296;2022-08-19T00:33:37;4.78;;;3.15;;
68234;SDS011;55052;52.056;5.296;2022-08-19T00:36:06;8.80;;;3.60;;
68234;SDS011;55052;52.056;5.296;2022-08-19T00:38:35;7.57;;;3.30;;
68234;SDS011;55052;52.056;5.296;2022-08-19T00:41:06;9.40;;;3.28;;
68234;SDS011;55052;52.056;5.296;2022-08-19T00:43:33;7.93;;;3.40;;
68234;SDS011;55052;52.056;5.296;2022-08-19T00:46:00;7.30;;;3.47;;
68234;SDS011;55052;52.056;5.296;2022-08-19T00:48:31;5.25;;;2.97;;
68234;SDS011;55052;52.056;5.296;2022-08-19T00:50:59;6.30;;;3.08;;
68234;SDS011;55052;52.056;5.296;2022-08-19T00:53:27;4.95;;;3.10;;
68234;SDS011;55052;52.056;5.296;2022-08-19T00:55:56;5.78;;;2.75;;
68234;SDS011;55052;52.056;5.296;2022-08-19T00:58:27;5.05;;;2.90;;
68234;SDS011;55052;52.056;5.296;2022-08-19T01:00:56;4.20;;;2.83;;
68234;SDS011;55052;52.056;5.296;2022-08-19T01:03:23;8.40;;;3.22;;
68234;SDS011;55052;52.056;5.296;2022-08-19T01:05:50;6.72;;;3.63;;
68234;SDS011;55052;52.056;5.296;2022-08-19T01:08:20;4.50;;;2.93;;
68234;SDS011;55052;52.056;5.296;2022-08-19T01:10:49;6.28;;;2.95;;
68234;SDS011;55052;52.056;5.296;2022-08-19T01:13:19;4.85;;;3.17;;
68234;SDS011;55052;52.056;5.296;2022-08-19T01:15:51;4.20;;;2.80;;
68234;SDS011;55052;52.056;5.296;2022-08-19T01:18:21;5.47;;;3.15;;
68234;SDS011;55052;52.056;5.296;2022-08-19T01:20:48;6.32;;;3.00;;
68234;SDS011;55052;52.056;5.296;2022-08-19T01:23:17;4.90;;;3.30;;
68234;SDS011;55052;52.056;5.296;2022-08-19T01:25:48;6.20;;;3.50;;
68234;SDS011;55052;52.056;5.296;2022-08-19T01:28:18;4.85;;;2.80;;
68234;SDS011;55052;52.056;5.296;2022-08-19T01:31:05;6.10;;;2.92;;
68234;SDS011;55052;52.056;5.296;2022-08-19T01:33:33;6.55;;;3.47;;
68234;SDS011;55052;52.056;5.296;2022-08-19T01:38:53;7.22;;;3.30;;
68234;SDS011;55052;52.056;5.296;2022-08-19T01:41:20;6.00;;;3.08;;
68234;SDS011;55052;52.056;5.296;2022-08-19T01:43:49;5.43;;;3.25;;
68234;SDS011;55052;52.056;5.296;2022-08-19T01:46:36;5.38;;;2.97;;
68234;SDS011;55052;52.056;5.296;2022-08-19T01:49:04;6.43;;;3.00;;
68234;SDS011;55052;52.056;5.296;2022-08-19T01:51:32;7.13;;;3.25;;
68234;SDS011;55052;52.056;5.296;2022-08-19T01:54:05;6.13;;;2.92;;
68234;SDS011;55052;52.056;5.296;2022-08-19T01:56:33;5.55;;;3.15;;
68234;SDS011;55052;52.056;5.296;2022-08-19T01:59:02;5.13;;;3.20;;
68234;SDS011;55052;52.056;5.296;2022-08-19T02:01:31;5.97;;;3.38;;
68234;SDS011;55052;52.056;5.296;2022-08-19T02:03:58;5.38;;;3.05;;
68234;SDS011;55052;52.056;5.296;2022-08-19T02:06:27;5.38;;;3.05;;
68234;SDS011;55052;52.056;5.296;2022-08-19T02:08:54;5.88;;;3.28;;
68234;SDS011;55052;52.056;5.296;2022-08-19T02:11:27;8.57;;;3.22;;
68234;SDS011;55052;52.056;5.296;2022-08-19T02:13:57;7.03;;;2.80;;
68234;SDS011;55052;52.056;5.296;2022-08-19T02:16:26;4.90;;;2.75;;
68234;SDS011;55052;52.056;5.296;2022-08-19T02:18:52;3.92;;;2.90;;
68234;SDS011;55052;52.056;5.296;2022-08-19T02:21:20;6.65;;;3.13;;
68234;SDS011;55052;52.056;5.296;2022-08-19T02:23:48;5.18;;;2.90;;
68234;SDS011;55052;52.056;5.296;2022-08-19T02:26:16;6.25;;;3.30;;
68234;SDS011;55052;52.056;5.296;2022-08-19T02:28:44;6.78;;;3.22;;
68234;SDS011;55052;52.056;5.296;2022-08-19T02:31:14;5.45;;;2.92;;
68234;SDS011;55052;52.056;5.296;2022-08-19T02:33:45;5.40;;;3.00;;
68234;SDS011;55052;52.056;5.296;2022-08-19T02:36:14;6.97;;;3.20;;
68234;SDS011;55052;52.056;5.296;2022-08-19T02:38:46;4.57;;;3.10;;
68234;SDS011;55052;52.056;5.296;2022-08-19T02:41:21;5.82;;;2.80;;
68234;SDS011;55052;52.056;5.296;2022-08-19T02:43:52;5.88;;;3.20;;
68234;SDS011;55052;52.056;5.296;2022-08-19T02:46:40;5.93;;;2.92;;
68234;SDS011;55052;52.056;5.296;2022-08-19T02:49:07;5.13;;;3.00;;
68234;SDS011;55052;52.056;5.296;2022-08-19T02:51:38;4.72;;;2.97;;
68234;SDS011;55052;52.056;5.296;2022-08-19T02:54:06;6.50;;;3.00;;
68234;SDS011;55052;52.056;5.296;2022-08-19T02:56:34;5.68;;;3.45;;
68234;SDS011;55052;52.056;5.296;2022-08-19T02:59:03;6.28;;;2.60;;
68234;SDS011;55052;52.056;5.296;2022-08-19T03:01:37;4.40;;;3.00;;
68234;SDS011;55052;52.056;5.296;2022-08-19T03:04:07;5.32;;;2.80;;
68234;SDS011;55052;52.056;5.296;2022-08-19T03:06:36;3.80;;;2.83;;
68234;SDS011;55052;52.056;5.296;2022-08-19T03:09:04;4.70;;;2.60;;
68234;SDS011;55052;52.056;5.296;2022-08-19T03:11:31;4.60;;;2.90;;
68234;SDS011;55052;52.056;5.296;2022-08-19T03:14:00;6.43;;;3.25;;
68234;SDS011;55052;52.056;5.296;2022-08-19T03:16:29;5.63;;;3.05;;
68234;SDS011;55052;52.056;5.296;2022-08-19T03:18:58;5.20;;;3.47;;
68234;SDS011;55052;52.056;5.296;2022-08-19T03:21:27;6.15;;;3.50;;
68234;SDS011;55052;52.056;5.296;2022-08-19T03:23:56;6.17;;;3.27;;
68234;SDS011;55052;52.056;5.296;2022-08-19T03:26:24;4.80;;;3.30;;
68234;SDS011;55052;52.056;5.296;2022-08-19T03:28:51;5.50;;;3.80;;
68234;SDS011;55052;52.056;5.296;2022-08-19T03:31:24;8.05;;;3.85;;
68234;SDS011;55052;52.056;5.296;2022-08-19T03:34:14;5.60;;;3.95;;
68234;SDS011;55052;52.056;5.296;2022-08-19T03:36:43;6.70;;;3.83;;
68234;SDS011;55052;52.056;5.296;2022-08-19T03:39:10;6.70;;;3.92;;
68234;SDS011;55052;52.056;5.296;2022-08-19T03:41:38;7.60;;;3.85;;
68234;SDS011;55052;52.056;5.296;2022-08-19T03:44:10;5.97;;;3.55;;
68234;SDS011;55052;52.056;5.296;2022-08-19T03:46:43;6.95;;;3.95;;
68234;SDS011;55052;52.056;5.296;2022-08-19T03:49:10;7.75;;;3.75;;
68234;SDS011;55052;52.056;5.296;2022-08-19T03:51:40;9.95;;;4.05;;
68234;SDS011;55052;52.056;5.296;2022-08-19T03:54:09;6.93;;;4.15;;
68234;SDS011;55052;52.056;5.296;2022-08-19T03:56:39;6.72;;;4.00;;
68234;SDS011;55052;52.056;5.296;2022-08-19T03:59:08;9.27;;;3.88;;
68234;SDS011;55052;52.056;5.296;2022-08-19T04:01:36;5.43;;;3.90;;
68234;SDS011;55052;52.056;5.296;2022-08-19T04:04:03;6.85;;;4.35;;
68234;SDS011;55052;52.056;5.296;2022-08-19T04:06:33;9.35;;;4.30;;
68234;SDS011;55052;52.056;5.296;2022-08-19T04:09:05;6.88;;;4.10;;
68234;SDS011;55052;52.056;5.296;2022-08-19T04:11:39;6.18;;;4.40;;
68234;SDS011;55052;52.056;5.296;2022-08-19T04:14:11;6.85;;;4.50;;
68234;SDS011;55052;52.056;5.296;2022-08-19T04:19:07;7.65;;;5.10;;
68234;SDS011;55052;52.056;5.296;2022-08-19T04:21:34;7.38;;;5.30;;
68234;SDS011;55052;52.056;5.296;2022-08-19T04:24:01;8.95;;;5.07;;
68234;SDS011;55052;52.056;5.296;2022-08-19T04:26:30;7.43;;;5.20;;
68234;SDS011;55052;52.056;5.296;2022-08-19T04:29:00;11.18;;;5.50;;
68234;SDS011;55052;52.056;5.296;2022-08-19T04:31:37;10.95;;;5.32;;
68234;SDS011;55052;52.056;5.296;2022-08-19T04:34:06;9.02;;;5.45;;
68234;SDS011;55052;52.056;5.296;2022-08-19T04:36:35;7.45;;;5.25;;
68234;SDS011;55052;52.056;5.296;2022-08-19T04:39:04;7.78;;;5.60;;
68234;SDS011;55052;52.056;5.296;2022-08-19T04:41:33;9.98;;;5.72;;
68234;SDS011;55052;52.056;5.296;2022-08-19T04:44:19;8.93;;;5.07;;
68234;SDS011;55052;52.056;5.296;2022-08-19T04:46:47;11.07;;;5.90;;
68234;SDS011;55052;52.056;5.296;2022-08-19T04:49:17;11.35;;;6.10;;
68234;SDS011;55052;52.056;5.296;2022-08-19T04:51:48;14.55;;;7.65;;
68234;SDS011;55052;52.056;5.296;2022-08-19T04:54:17;12.25;;;6.80;;
68234;SDS011;55052;52.056;5.296;2022-08-19T04:57:04;11.60;;;6.18;;
68234;SDS011;55052;52.056;5.296;2022-08-19T04:59:33;12.77;;;6.50;;
68234;SDS011;55052;52.056;5.296;2022-08-19T05:02:01;9.60;;;6.85;;
68234;SDS011;55052;52.056;5.296;2022-08-19T05:04:27;9.55;;;6.68;;
68234;SDS011;55052;52.056;5.296;2022-08-19T05:06:58;10.75;;;6.82;;
68234;SDS011;55052;52.056;5.296;2022-08-19T05:09:26;12.35;;;5.80;;
68234;SDS011;55052;52.056;5.296;2022-08-19T05:12:13;10.45;;;6.53;;
68234;SDS011;55052;52.056;5.296;2022-08-19T05:14:41;13.23;;;6.70;;
68234;SDS011;55052;52.056;5.296;2022-08-19T05:17:09;9.43;;;6.53;;
68234;SDS011;55052;52.056;5.296;2022-08-19T05:19:53;9.68;;;5.68;;
68234;SDS011;55052;52.056;5.296;2022-08-19T05:22:39;11.90;;;6.85;;
68234;SDS011;55052;52.056;5.296;2022-08-19T05:25:11;10.18;;;6.07;;
68234;SDS011;55052;52.056;5.296;2022-08-19T05:27:40;9.65;;;6.15;;
68234;SDS011;55052;52.056;5.296;2022-08-19T05:30:08;9.43;;;6.20;;
68234;SDS011;55052;52.056;5.296;2022-08-19T05:32:37;11.35;;;6.05;;
68234;SDS011;55052;52.056;5.296;2022-08-19T05:35:05;10.38;;;6.13;;
68234;SDS011;55052;52.056;5.296;2022-08-19T05:37:32;11.38;;;6.30;;
68234;SDS011;55052;52.056;5.296;2022-08-19T05:39:59;9.00;;;6.53;;
68234;SDS011;55052;52.056;5.296;2022-08-19T05:42:26;9.00;;;6.20;;
68234;SDS011;55052;52.056;5.296;2022-08-19T05:44:52;9.43;;;5.95;;
68234;SDS011;55052;52.056;5.296;2022-08-19T05:47:20;12.52;;;6.97;;
68234;SDS011;55052;52.056;5.296;2022-08-19T05:49:47;10.93;;;6.18;;
68234;SDS011;55052;52.056;5.296;2022-08-19T05:52:16;10.77;;;7.97;;
68234;SDS011;55052;52.056;5.296;2022-08-19T05:54:44;11.80;;;7.50;;
68234;SDS011;55052;52.056;5.296;2022-08-19T05:57:17;12.10;;;8.38;;
68234;SDS011;55052;52.056;5.296;2022-08-19T05:59:44;17.55;;;11.25;;
68234;SDS011;55052;52.056;5.296;2022-08-19T06:02:23;13.93;;;10.35;;
68234;SDS011;55052;52.056;5.296;2022-08-19T06:04:54;17.77;;;11.50;;
68234;SDS011;55052;52.056;5.296;2022-08-19T06:07:21;17.63;;;11.68;;
68234;SDS011;55052;52.056;5.296;2022-08-19T06:09:48;21.45;;;13.27;;
68234;SDS011;55052;52.056;5.296;2022-08-19T06:12:26;24.60;;;14.75;;
68234;SDS011;55052;52.056;5.296;2022-08-19T06:14:54;24.08;;;15.27;;
68234;SDS011;55052;52.056;5.296;2022-08-19T06:17:27;24.77;;;15.57;;
68234;SDS011;55052;52.056;5.296;2022-08-19T06:19:56;30.80;;;18.10;;
68234;SDS011;55052;52.056;5.296;2022-08-19T06:22:24;31.10;;;18.23;;
68234;SDS011;55052;52.056;5.296;2022-08-19T06:24:52;29.83;;;18.67;;
68234;SDS011;55052;52.056;5.296;2022-08-19T06:27:20;37.20;;;20.42;;
68234;SDS011;55052;52.056;5.296;2022-08-19T06:29:48;29.13;;;18.40;;
68234;SDS011;55052;52.056;5.296;2022-08-19T06:32:15;31.20;;;18.60;;
68234;SDS011;55052;52.056;5.296;2022-08-19T06:34:44;33.53;;;20.30;;
68234;SDS011;55052;52.056;5.296;2022-08-19T06:37:11;32.85;;;19.65;;
68234;SDS011;55052;52.056;5.296;2022-08-19T06:39:39;36.03;;;18.65;;
68234;SDS011;55052;52.056;5.296;2022-08-19T06:42:07;34.45;;;20.48;;
68234;SDS011;55052;52.056;5.296;2022-08-19T06:47:11;43.65;;;22.90;;
68234;SDS011;55052;52.056;5.296;2022-08-19T06:49:57;48.28;;;26.20;;
68234;SDS011;55052;52.056;5.296;2022-08-19T06:52:31;54.55;;;27.52;;
68234;SDS011;55052;52.056;5.296;2022-08-19T06:55:02;52.53;;;28.75;;
68234;SDS011;55052;52.056;5.296;2022-08-19T06:57:32;59.58;;;32.17;;
68234;SDS011;55052;52.056;5.296;2022-08-19T06:59:59;63.85;;;34.08;;
68234;SDS011;55052;52.056;5.296;2022-08-19T07:02:26;63.92;;;35.30;;
68234;SDS011;55052;52.056;5.296;2022-08-19T07:04:53;66.57;;;34.53;;
68234;SDS011;55052;52.056;5.296;2022-08-19T07:07:22;67.90;;;34.95;;
68234;SDS011;55052;52.056;5.296;2022-08-19T07:09:50;59.63;;;33.65;;
68234;SDS011;55052;52.056;5.296;2022-08-19T07:12:28;66.32;;;35.20;;
68234;SDS011;55052;52.056;5.296;2022-08-19T07:14:57;66.57;;;34.30;;
68234;SDS011;55052;52.056;5.296;2022-08-19T07:17:24;65.65;;;34.75;;
68234;SDS011;55052;52.056;5.296;2022-08-19T07:19:52;58.40;;;31.45;;
68234;SDS011;55052;52.056;5.296;2022-08-19T07:22:20;57.25;;;30.63;;
68234;SDS011;55052;52.056;5.296;2022-08-19T07:24:49;55.80;;;31.13;;
68234;SDS011;55052;52.056;5.296;2022-08-19T07:27:17;56.78;;;30.05;;
68234;SDS011;55052;52.056;5.296;2022-08-19T07:29:50;49.55;;;29.73;;
68234;SDS011;55052;52.056;5.296;2022-08-19T07:32:21;52.17;;;30.52;;
68234;SDS011;55052;52.056;5.296;2022-08-19T07:34:48;50.45;;;29.13;;
68234;SDS011;55052;52.056;5.296;2022-08-19T07:37:15;51.47;;;29.92;;
68234;SDS011;55052;52.056;5.296;2022-08-19T07:39:42;49.70;;;29.25;;
68234;SDS011;55052;52.056;5.296;2022-08-19T07:42:10;51.13;;;27.85;;
68234;SDS011;55052;52.056;5.296;2022-08-19T07:44:38;48.70;;;26.83;;
68234;SDS011;55052;52.056;5.296;2022-08-19T07:47:11;47.42;;;25.52;;
68234;SDS011;55052;52.056;5.296;2022-08-19T07:50:01;46.55;;;26.52;;
68234;SDS011;55052;52.056;5.296;2022-08-19T07:52:33;46.70;;;26.58;;
68234;SDS011;55052;52.056;5.296;2022-08-19T07:55:03;45.13;;;26.02;;
68234;SDS011;55052;52.056;5.296;2022-08-19T07:57:30;48.00;;;26.58;;
68234;SDS011;55052;52.056;5.296;2022-08-19T07:59:58;46.58;;;25.42;;
68234;SDS011;55052;52.056;5.296;2022-08-19T08:02:24;43.60;;;24.40;;
68234;SDS011;55052;52.056;5.296;2022-08-19T08:04:51;44.00;;;25.10;;
68234;SDS011;55052;52.056;5.296;2022-08-19T08:07:38;40.78;;;24.15;;
68234;SDS011;55052;52.056;5.296;2022-08-19T08:10:24;42.17;;;24.60;;
68234;SDS011;55052;52.056;5.296;2022-08-19T08:12:51;39.60;;;25.10;;
68234;SDS011;55052;52.056;5.296;2022-08-19T08:15:35;41.20;;;23.92;;
68234;SDS011;55052;52.056;5.296;2022-08-19T08:18:09;39.88;;;23.05;;
68234;SDS011;55052;52.056;5.296;2022-08-19T08:20:37;37.03;;;22.70;;
68234;SDS011;55052;52.056;5.296;2022-08-19T08:23:04;37.90;;;22.33;;
68234;SDS011;55052;52.056;5.296;2022-08-19T08:25:53;36.47;;;21.90;;
68234;SDS011;55052;52.056;5.296;2022-08-19T08:28:23;32.92;;;20.70;;
68234;SDS011;55052;52.056;5.296;2022-08-19T08:30:54;35.05;;;21.50;;
68234;SDS011;55052;52.056;5.296;2022-08-19T08:33:23;44.05;;;22.30;;
68234;SDS011;55052;52.056;5.296;2022-08-19T08:36:06;36.40;;;22.60;;
68234;SDS011;55052;52.056;5.296;2022-08-19T08:38:33;41.35;;;22.45;;
68234;SDS011;55052;52.056;5.296;2022-08-19T08:43:54;37.28;;;21.17;;
68234;SDS011;55052;52.056;5.296;2022-08-19T08:46:29;37.47;;;23.30;;
68234;SDS011;55052;52.056;5.296;2022-08-19T08:54:59;29.95;;;19.92;;
68234;SDS011;55052;52.056;5.296;2022-08-19T08:57:37;32.90;;;20.88;;
68234;SDS011;55052;52.056;5.296;2022-08-19T09:00:24;32.35;;;20.35;;
68234;SDS011;55052;52.056;5.296;2022-08-19T09:03:16;30.40;;;18.13;;
68234;SDS011;55052;52.056;5.296;2022-08-19T09:08:39;25.73;;;17.33;;
68234;SDS011;55052;52.056;5.296;2022-08-19T09:14:16;27.10;;;16.83;;
68234;SDS011;55052;52.056;5.296;2022-08-19T09:17:07;28.65;;;17.77;;
68234;SDS011;55052;52.056;5.296;2022-08-19T09:19:36;28.17;;;17.98;;
68234;SDS011;55052;52.056;5.296;2022-08-19T09:22:14;29.15;;;17.52;;
68234;SDS011;55052;52.056;5.296;2022-08-19T09:24:51;23.63;;;16.95;;
68234;SDS011;55052;52.056;5.296;2022-08-19T09:27:20;26.83;;;17.05;;
68234;SDS011;55052;52.056;5.296;2022-08-19T09:30:09;28.35;;;17.73;;
68234;SDS011;55052;52.056;5.296;2022-08-19T09:32:42;28.02;;;17.60;;
68234;SDS011;55052;52.056;5.296;2022-08-19T09:35:09;27.85;;;17.98;;
68234;SDS011;55052;52.056;5.296;2022-08-19T09:37:37;28.83;;;18.20;;
68234;SDS011;55052;52.056;5.296;2022-08-19T09:40:05;29.77;;;18.60;;
68234;SDS011;55052;52.056;5.296;2022-08-19T09:42:36;29.50;;;19.58;;
68234;SDS011;55052;52.056;5.296;2022-08-19T09:45:15;24.98;;;18.38;;
68234;SDS011;55052;52.056;5.296;2022-08-19T09:47:44;26.27;;;17.60;;
68234;SDS011;55052;52.056;5.296;2022-08-19T09:50:12;30.05;;;19.02;;
68234;SDS011;55052;52.056;5.296;2022-08-19T09:52:41;28.75;;;19.02;;
68234;SDS011;55052;52.056;5.296;2022-08-19T09:55:23;26.17;;;19.35;;
68234;SDS011;55052;52.056;5.296;2022-08-19T09:57:58;27.73;;;18.83;;
68234;SDS011;55052;52.056;5.296;2022-08-19T10:00:27;32.08;;;18.67;;
68234;SDS011;55052;52.056;5.296;2022-08-19T10:02:54;27.48;;;19.80;;
68234;SDS011;55052;52.056;5.296;2022-08-19T10:05:20;31.40;;;20.77;;
68234;SDS011;55052;52.056;5.296;2022-08-19T10:08:07;32.15;;;22.15;;
68234;SDS011;55052;52.056;5.296;2022-08-19T10:10:40;34.13;;;23.40;;
68234;SDS011;55052;52.056;5.296;2022-08-19T10:13:13;32.58;;;22.35;;
68234;SDS011;55052;52.056;5.296;2022-08-19T10:15:41;36.13;;;25.35;;
68234;SDS011;55052;52.056;5.296;2022-08-19T10:18:13;37.00;;;25.00;;
68234;SDS011;55052;52.056;5.296;2022-08-19T10:20:40;37.83;;;25.77;;
68234;SDS011;55052;52.056;5.296;2022-08-19T10:23:08;34.92;;;26.13;;
68234;SDS011;55052;52.056;5.296;2022-08-19T10:25:35;38.67;;;26.05;;
68234;SDS011;55052;52.056;5.296;2022-08-19T10:28:03;39.50;;;26.85;;
68234;SDS011;55052;52.056;5.296;2022-08-19T10:30:36;41.42;;;28.55;;
68234;SDS011;55052;52.056;5.296;2022-08-19T10:33:03;44.08;;;27.67;;
68234;SDS011;55052;52.056;5.296;2022-08-19T10:35:36;41.97;;;27.60;;
68234;SDS011;55052;52.056;5.296;2022-08-19T10:38:23;37.05;;;26.80;;
68234;SDS011;55052;52.056;5.296;2022-08-19T10:40:57;39.33;;;26.77;;
68234;SDS011;55052;52.056;5.296;2022-08-19T10:43:24;40.00;;;26.38;;
68234;SDS011;55052;52.056;5.296;2022-08-19T10:45:51;37.22;;;26.63;;
68234;SDS011;55052;52.056;5.296;2022-08-19T10:48:22;36.92;;;26.77;;
68234;SDS011;55052;52.056;5.296;2022-08-19T10:50:48;41.85;;;27.42;;
68234;SDS011;55052;52.056;5.296;2022-08-19T10:53:34;42.10;;;27.40;;
68234;SDS011;55052;52.056;5.296;2022-08-19T10:56:00;46.40;;;30.05;;
68234;SDS011;55052;52.056;5.296;2022-08-19T10:58:46;41.55;;;27.27;;
68234;SDS011;55052;52.056;5.296;2022-08-19T11:01:14;42.10;;;26.35;;
68234;SDS011;55052;52.056;5.296;2022-08-19T11:03:41;46.97;;;28.05;;
68234;SDS011;55052;52.056;5.296;2022-08-19T11:06:08;40.83;;;27.55;;
68234;SDS011;55052;52.056;5.296;2022-08-19T11:08:35;40.58;;;26.17;;
68234;SDS011;55052;52.056;5.296;2022-08-19T11:11:04;39.47;;;25.65;;
68234;SDS011;55052;52.056;5.296;2022-08-19T11:13:33;40.85;;;26.10;;
68234;SDS011;55052;52.056;5.296;2022-08-19T11:16:04;42.22;;;26.48;;
68234;SDS011;55052;52.056;5.296;2022-08-19T11:18:44;36.75;;;24.90;;
68234;SDS011;55052;52.056;5.296;2022-08-19T11:23:48;38.72;;;25.80;;
68234;SDS011;55052;52.056;5.296;2022-08-19T11:26:17;38.50;;;26.48;;
68234;SDS011;55052;52.056;5.296;2022-08-19T11:28:45;40.28;;;24.98;;
68234;SDS011;55052;52.056;5.296;2022-08-19T11:31:15;36.13;;;25.20;;
68234;SDS011;55052;52.056;5.296;2022-08-19T11:33:44;32.95;;;24.58;;
68234;SDS011;55052;52.056;5.296;2022-08-19T11:36:13;32.00;;;24.90;;
68234;SDS011;55052;52.056;5.296;2022-08-19T11:38:40;34.38;;;25.42;;
68234;SDS011;55052;52.056;5.296;2022-08-19T11:41:07;29.70;;;23.20;;
68234;SDS011;55052;52.056;5.296;2022-08-19T11:43:34;34.58;;;23.80;;
68234;SDS011;55052;52.056;5.296;2022-08-19T11:46:03;36.00;;;25.40;;
68234;SDS011;55052;52.056;5.296;2022-08-19T11:48:34;36.97;;;25.48;;
68234;SDS011;55052;52.056;5.296;2022-08-19T11:51:05;33.95;;;25.45;;
68234;SDS011;55052;52.056;5.296;2022-08-19T11:53:35;31.35;;;23.98;;
68234;SDS011;55052;52.056;5.296;2022-08-19T11:56:06;34.33;;;27.55;;
68234;SDS011;55052;52.056;5.296;2022-08-19T11:58:34;37.70;;;25.83;;
68234;SDS011;55052;52.056;5.296;2022-08-19T12:01:04;37.90;;;24.58;;
68234;SDS011;55052;52.056;5.296;2022-08-19T12:03:32;33.85;;;24.83;;
68234;SDS011;55052;52.056;5.296;2022-08-19T12:06:06;34.28;;;24.23;;
68234;SDS011;55052;52.056;5.296;2022-08-19T12:08:35;30.40;;;22.65;;
68234;SDS011;55052;52.056;5.296;2022-08-19T12:11:02;27.88;;;21.25;;
68234;SDS011;55052;52.056;5.296;2022-08-19T12:13:29;28.55;;;21.35;;
68234;SDS011;55052;52.056;5.296;2022-08-19T12:15:56;29.60;;;20.88;;
68234;SDS011;55052;52.056;5.296;2022-08-19T12:18:24;29.63;;;20.70;;
68234;SDS011;55052;52.056;5.296;2022-08-19T12:20:52;29.35;;;19.73;;
68234;SDS011;55052;52.056;5.296;2022-08-19T12:23:20;23.67;;;18.38;;
68234;SDS011;55052;52.056;5.296;2022-08-19T12:25:47;25.35;;;17.10;;
68234;SDS011;55052;52.056;5.296;2022-08-19T12:28:22;25.33;;;19.10;;
68234;SDS011;55052;52.056;5.296;2022-08-19T12:30:50;21.75;;;17.40;;
68234;SDS011;55052;52.056;5.296;2022-08-19T12:33:20;26.73;;;17.17;;
68234;SDS011;55052;52.056;5.296;2022-08-19T12:35:50;23.00;;;18.08;;
68234;SDS011;55052;52.056;5.296;2022-08-19T12:38:17;24.25;;;16.20;;
68234;SDS011;55052;52.056;5.296;2022-08-19T12:40:45;17.25;;;14.63;;
68234;SDS011;55052;52.056;5.296;2022-08-19T12:43:13;19.75;;;13.50;;
68234;SDS011;55052;52.056;5.296;2022-08-19T12:45:42;16.63;;;11.68;;
68234;SDS011;55052;52.056;5.296;2022-08-19T12:48:12;15.32;;;10.38;;
68234;SDS011;55052;52.056;5.296;2022-08-19T12:50:59;13.50;;;9.88;;
68234;SDS011;55052;52.056;5.296;2022-08-19T12:53:27;14.93;;;10.32;;
68234;SDS011;55052;52.056;5.296;2022-08-19T12:55:55;16.17;;;10.20;;
68234;SDS011;55052;52.056;5.296;2022-08-19T12:58:23;12.43;;;8.95;;
68234;SDS011;55052;52.056;5.296;2022-08-19T13:00:52;15.27;;;9.02;;
68234;SDS011;55052;52.056;5.296;2022-08-19T13:03:19;13.38;;;9.02;;
68234;SDS011;55052;52.056;5.296;2022-08-19T13:05:50;15.50;;;9.10;;
68234;SDS011;55052;52.056;5.296;2022-08-19T13:08:17;17.42;;;10.00;;
68234;SDS011;55052;52.056;5.296;2022-08-19T13:10:43;17.77;;;10.55;;
68234;SDS011;55052;52.056;5.296;2022-08-19T13:13:10;16.08;;;11.23;;
68234;SDS011;55052;52.056;5.296;2022-08-19T13:15:39;16.95;;;11.35;;
68234;SDS011;55052;52.056;5.296;2022-08-19T13:18:08;14.32;;;11.25;;
68234;SDS011;55052;52.056;5.296;2022-08-19T13:20:36;18.67;;;12.18;;
68234;SDS011;55052;52.056;5.296;2022-08-19T13:23:03;16.73;;;12.13;;
68234;SDS011;55052;52.056;5.296;2022-08-19T13:25:30;15.02;;;10.93;;
68234;SDS011;55052;52.056;5.296;2022-08-19T13:27:57;15.60;;;10.60;;
68234;SDS011;55052;52.056;5.296;2022-08-19T13:30:25;17.48;;;12.50;;
68234;SDS011;55052;52.056;5.296;2022-08-19T13:33:10;19.20;;;12.68;;
68234;SDS011;55052;52.056;5.296;2022-08-19T13:35:38;14.55;;;10.20;;
68234;SDS011;55052;52.056;5.296;2022-08-19T13:38:10;14.43;;;9.63;;
68234;SDS011;55052;52.056;5.296;2022-08-19T13:40:37;14.13;;;9.85;;
68234;SDS011;55052;52.056;5.296;2022-08-19T13:43:06;15.63;;;9.90;;
68234;SDS011;55052;52.056;5.296;2022-08-19T13:45:49;14.57;;;9.18;;
68234;SDS011;55052;52.056;5.296;2022-08-19T13:48:23;12.23;;;7.82;;
68234;SDS011;55052;52.056;5.296;2022-08-19T13:50:52;11.15;;;7.05;;
68234;SDS011;55052;52.056;5.296;2022-08-19T13:53:20;10.82;;;7.00;;
68234;SDS011;55052;52.056;5.296;2022-08-19T13:55:46;9.45;;;7.07;;
68234;SDS011;55052;52.056;5.296;2022-08-19T13:58:13;13.05;;;6.97;;
68234;SDS011;55052;52.056;5.296;2022-08-19T14:00:42;8.75;;;6.85;;
68234;SDS011;55052;52.056;5.296;2022-08-19T14:03:10;10.40;;;6.90;;
68234;SDS011;55052;52.056;5.296;2022-08-19T14:05:37;9.23;;;7.03;;
68234;SDS011;55052;52.056;5.296;2022-08-19T14:08:04;11.43;;;7.85;;
68234;SDS011;55052;52.056;5.296;2022-08-19T14:10:31;9.85;;;6.90;;
68234;SDS011;55052;52.056;5.296;2022-08-19T14:13:00;9.63;;;6.53;;
68234;SDS011;55052;52.056;5.296;2022-08-19T14:17:56;11.93;;;7.32;;
68234;SDS011;55052;52.056;5.296;2022-08-19T14:20:23;9.43;;;6.20;;
68234;SDS011;55052;52.056;5.296;2022-08-19T14:22:51;7.93;;;6.53;;
68234;SDS011;55052;52.056;5.296;2022-08-19T14:25:23;8.13;;;6.28;;
68234;SDS011;55052;52.056;5.296;2022-08-19T14:27:52;7.78;;;6.15;;
68234;SDS011;55052;52.056;5.296;2022-08-19T14:30:22;7.90;;;5.80;;
68234;SDS011;55052;52.056;5.296;2022-08-19T14:32:54;7.20;;;5.43;;
68234;SDS011;55052;52.056;5.296;2022-08-19T14:35:22;6.95;;;5.35;;
68234;SDS011;55052;52.056;5.296;2022-08-19T14:37:50;8.30;;;5.65;;
68234;SDS011;55052;52.056;5.296;2022-08-19T14:40:22;8.32;;;5.53;;
68234;SDS011;55052;52.056;5.296;2022-08-19T14:42:56;7.90;;;5.28;;
68234;SDS011;55052;52.056;5.296;2022-08-19T14:45:28;8.02;;;5.28;;
68234;SDS011;55052;52.056;5.296;2022-08-19T14:47:57;7.85;;;5.68;;
68234;SDS011;55052;52.056;5.296;2022-08-19T14:50:26;6.93;;;5.38;;
68234;SDS011;55052;52.056;5.296;2022-08-19T14:53:00;6.72;;;5.10;;
68234;SDS011;55052;52.056;5.296;2022-08-19T14:55:42;8.25;;;5.20;;
68234;SDS011;55052;52.056;5.296;2022-08-19T14:58:10;8.23;;;5.68;;
68234;SDS011;55052;52.056;5.296;2022-08-19T15:00:55;9.15;;;6.30;;
68234;SDS011;55052;52.056;5.296;2022-08-19T15:03:23;6.95;;;5.50;;
68234;SDS011;55052;52.056;5.296;2022-08-19T15:05:50;7.95;;;5.18;;
68234;SDS011;55052;52.056;5.296;2022-08-19T15:08:17;7.18;;;5.60;;
68234;SDS011;55052;52.056;5.296;2022-08-19T15:10:43;6.78;;;4.93;;
68234;SDS011;55052;52.056;5.296;2022-08-19T15:13:11;7.03;;;5.25;;
68234;SDS011;55052;52.056;5.296;2022-08-19T15:15:38;7.50;;;5.47;;
68234;SDS011;55052;52.056;5.296;2022-08-19T15:18:05;10.25;;;5.85;;
68234;SDS011;55052;52.056;5.296;2022-08-19T15:20:32;8.60;;;6.07;;